sensor_id;sensor_type;location;lat;lon;timestamp;P1;durP1;ratioP1;P2;durP2;ratioP2
20000;SDS011;10161;41.188;-8.642;2022-11-15T00:02:25;19.43;;;4.70;;
20000;SDS011;10161;41.188;-8.642;2022-11-15T00:04:52;15.40;;;4.10;;
20000;SDS011;10161;41.188;-8.642;2022-11-15T00:07:19;16.57;;;5.10;;
20000;SDS011;10161;41.188;-8.642;2022-11-15T00:09:46;14.70;;;4.07;;
20000;SDS011;10161;41.188;-8.642;2022-11-15T00:12:13;14.50;;;4.80;;
20000;SDS011;10161;41.188;-8.642;2022-11-15T00:14:40;18.93;;;5.37;;
20000;SDS011;10161;41.188;-8.642;2022-11-15T00:17:08;21.50;;;5.57;;
20000;SDS011;10161;41.188;-8.642;2022-11-15T00:19:35;10.70;;;4.20;;
20000;SDS011;10161;41.188;-8.642;2022-11-15T00:22:02;11.23;;;4.40;;
20000;SDS011;10161;41.188;-8.642;2022-11-15T00:24:28;15.83;;;4.60;;
20000;SDS011;10161;41.188;-8.642;2022-11-15T00:26:55;14.50;;;4.37;;
20000;SDS011;10161;41.188;-8.642;2022-11-15T00:29:22;17.47;;;4.20;;
20000;SDS011;10161;41.188;-8.642;2022-11-15T00:31:49;16.10;;;4.50;;
20000;SDS011;10161;41.188;-8.642;2022-11-15T00:34:17;20.00;;;4.63;;
20000;SDS011;10161;41.188;-8.642;2022-11-15T00:36:44;27.03;;;5.50;;
20000;SDS011;10161;41.188;-8.642;2022-11-15T00:39:11;15.03;;;4.53;;
20000;SDS011;10161;41.188;-8.642;2022-11-15T00:41:38;12.70;;;4.90;;
20000;SDS011;10161;41.188;-8.642;2022-11-15T00:44:05;14.60;;;4.50;;
20000;SDS011;10161;41.188;-8.642;2022-11-15T00:46:31;15.00;;;4.90;;
20000;SDS011;10161;41.188;-8.642;2022-11-15T00:48:58;11.87;;;4.53;;
20000;SDS011;10161;41.188;-8.642;2022-11-15T00:51:27;13.80;;;5.10;;
20000;SDS011;10161;41.188;-8.642;2022-11-15T00:53:53;20.70;;;5.37;;
20000;SDS011;10161;41.188;-8.642;2022-11-15T00:56:20;16.70;;;5.43;;
20000;SDS011;10161;41.188;-8.642;2022-11-15T00:58:47;17.43;;;4.40;;
20000;SDS011;10161;41.188;-8.642;2022-11-15T01:01:14;17.53;;;5.00;;
20000;SDS011;10161;41.188;-8.642;2022-11-15T01:03:41;15.70;;;4.60;;
20000;SDS011;10161;41.188;-8.642;2022-11-15T01:06:08;16.27;;;4.33;;
20000;SDS011;10161;41.188;-8.642;2022-11-15T01:08:39;19.40;;;5.23;;
20000;SDS011;10161;41.188;-8.642;2022-11-15T01:11:07;12.80;;;4.50;;
20000;SDS011;10161;41.188;-8.642;2022-11-15T01:13:36;11.40;;;4.10;;
20000;SDS011;10161;41.188;-8.642;2022-11-15T01:16:07;16.87;;;4.50;;
20000;SDS011;10161;41.188;-8.642;2022-11-15T01:18:35;9.30;;;4.30;;
20000;SDS011;10161;41.188;-8.642;2022-11-15T01:21:06;15.23;;;4.70;;
20000;SDS011;10161;41.188;-8.642;2022-11-15T01:23:37;11.33;;;4.50;;
20000;SDS011;10161;41.188;-8.642;2022-11-15T01:26:07;20.33;;;4.53;;
20000;SDS011;10161;41.188;-8.642;2022-11-15T01:28:36;23.90;;;5.70;;
20000;SDS011;10161;41.188;-8.642;2022-11-15T01:31:04;14.07;;;5.47;;
20000;SDS011;10161;41.188;-8.642;2022-11-15T01:33:33;15.43;;;4.10;;
20000;SDS011;10161;41.188;-8.642;2022-11-15T01:36:03;16.27;;;5.27;;
20000;SDS011;10161;41.188;-8.642;2022-11-15T01:38:30;14.40;;;4.50;;
20000;SDS011;10161;41.188;-8.642;2022-11-15T01:40:57;11.97;;;4.13;;
20000;SDS011;10161;41.188;-8.642;2022-11-15T01:43:26;12.03;;;4.50;;
20000;SDS011;10161;41.188;-8.642;2022-11-15T01:45:55;18.63;;;4.10;;
20000;SDS011;10161;41.188;-8.642;2022-11-15T01:48:25;10.30;;;3.70;;
20000;SDS011;10161;41.188;-8.642;2022-11-15T01:50:56;12.47;;;4.87;;
20000;SDS011;10161;41.188;-8.642;2022-11-15T01:53:23;11.70;;;3.40;;
20000;SDS011;10161;41.188;-8.642;2022-11-15T01:55:51;10.73;;;3.77;;
20000;SDS011;10161;41.188;-8.642;2022-11-15T01:58:18;13.83;;;4.10;;
20000;SDS011;10161;41.188;-8.642;2022-11-15T02:00:46;15.00;;;5.00;;
20000;SDS011;10161;41.188;-8.642;2022-11-15T02:03:14;14.90;;;4.53;;
20000;SDS011;10161;41.188;-8.642;2022-11-15T02:05:41;22.77;;;5.93;;
20000;SDS011;10161;41.188;-8.642;2022-11-15T02:08:09;22.10;;;6.00;;
20000;SDS011;10161;41.188;-8.642;2022-11-15T02:10:45;24.23;;;5.50;;
20000;SDS011;10161;41.188;-8.642;2022-11-15T02:13:12;16.80;;;4.93;;
20000;SDS011;10161;41.188;-8.642;2022-11-15T02:15:40;24.27;;;5.90;;
20000;SDS011;10161;41.188;-8.642;2022-11-15T02:18:14;28.23;;;6.83;;
20000;SDS011;10161;41.188;-8.642;2022-11-15T02:20:52;24.03;;;7.83;;
20000;SDS011;10161;41.188;-8.642;2022-11-15T02:23:41;24.93;;;5.77;;
20000;SDS011;10161;41.188;-8.642;2022-11-15T02:29:29;14.93;;;5.07;;
20000;SDS011;10161;41.188;-8.642;2022-11-15T02:32:05;15.27;;;4.87;;
20000;SDS011;10161;41.188;-8.642;2022-11-15T02:34:38;23.60;;;5.30;;
20000;SDS011;10161;41.188;-8.642;2022-11-15T02:37:11;18.67;;;5.03;;
20000;SDS011;10161;41.188;-8.642;2022-11-15T02:39:44;21.20;;;5.43;;
20000;SDS011;10161;41.188;-8.642;2022-11-15T02:42:16;19.97;;;4.90;;
20000;SDS011;10161;41.188;-8.642;2022-11-15T02:45:03;28.47;;;5.37;;
20000;SDS011;10161;41.188;-8.642;2022-11-15T02:47:35;20.27;;;5.40;;
20000;SDS011;10161;41.188;-8.642;2022-11-15T02:50:06;21.67;;;5.00;;
20000;SDS011;10161;41.188;-8.642;2022-11-15T02:52:34;19.03;;;5.20;;
20000;SDS011;10161;41.188;-8.642;2022-11-15T02:55:01;25.20;;;5.80;;
20000;SDS011;10161;41.188;-8.642;2022-11-15T02:57:32;18.93;;;4.47;;
20000;SDS011;10161;41.188;-8.642;2022-11-15T03:00:06;23.43;;;4.67;;
20000;SDS011;10161;41.188;-8.642;2022-11-15T03:02:42;25.50;;;5.13;;
20000;SDS011;10161;41.188;-8.642;2022-11-15T03:05:19;20.00;;;3.67;;
20000;SDS011;10161;41.188;-8.642;2022-11-15T03:07:51;18.03;;;4.07;;
20000;SDS011;10161;41.188;-8.642;2022-11-15T03:10:21;10.53;;;3.77;;
20000;SDS011;10161;41.188;-8.642;2022-11-15T03:12:53;11.53;;;3.63;;
20000;SDS011;10161;41.188;-8.642;2022-11-15T03:15:23;10.30;;;3.40;;
20000;SDS011;10161;41.188;-8.642;2022-11-15T03:17:55;8.37;;;3.30;;
20000;SDS011;10161;41.188;-8.642;2022-11-15T03:20:24;12.07;;;3.80;;
20000;SDS011;10161;41.188;-8.642;2022-11-15T03:22:53;11.53;;;3.27;;
20000;SDS011;10161;41.188;-8.642;2022-11-15T03:25:23;15.03;;;4.33;;
20000;SDS011;10161;41.188;-8.642;2022-11-15T03:27:51;9.90;;;3.80;;
20000;SDS011;10161;41.188;-8.642;2022-11-15T03:30:19;14.90;;;3.83;;
20000;SDS011;10161;41.188;-8.642;2022-11-15T03:32:47;15.40;;;4.63;;
20000;SDS011;10161;41.188;-8.642;2022-11-15T03:35:18;14.07;;;3.80;;
20000;SDS011;10161;41.188;-8.642;2022-11-15T03:37:49;15.60;;;3.87;;
20000;SDS011;10161;41.188;-8.642;2022-11-15T03:40:19;13.13;;;3.30;;
20000;SDS011;10161;41.188;-8.642;2022-11-15T03:42:58;15.97;;;3.97;;
20000;SDS011;10161;41.188;-8.642;2022-11-15T03:45:29;9.30;;;3.40;;
20000;SDS011;10161;41.188;-8.642;2022-11-15T03:47:58;16.13;;;3.63;;
20000;SDS011;10161;41.188;-8.642;2022-11-15T03:50:29;17.20;;;3.40;;
20000;SDS011;10161;41.188;-8.642;2022-11-15T03:52:56;17.20;;;4.13;;
20000;SDS011;10161;41.188;-8.642;2022-11-15T03:55:24;13.77;;;3.93;;
20000;SDS011;10161;41.188;-8.642;2022-11-15T03:57:51;10.87;;;3.40;;
20000;SDS011;10161;41.188;-8.642;2022-11-15T04:00:21;14.37;;;3.47;;
20000;SDS011;10161;41.188;-8.642;2022-11-15T04:02:48;16.80;;;3.80;;
20000;SDS011;10161;41.188;-8.642;2022-11-15T04:05:15;15.43;;;3.50;;
20000;SDS011;10161;41.188;-8.642;2022-11-15T04:07:43;13.77;;;3.90;;
20000;SDS011;10161;41.188;-8.642;2022-11-15T04:10:10;14.13;;;3.63;;
20000;SDS011;10161;41.188;-8.642;2022-11-15T04:12:38;19.77;;;4.73;;
20000;SDS011;10161;41.188;-8.642;2022-11-15T04:15:08;11.63;;;3.83;;
20000;SDS011;10161;41.188;-8.642;2022-11-15T04:17:37;9.23;;;2.83;;
20000;SDS011;10161;41.188;-8.642;2022-11-15T04:20:06;15.43;;;4.13;;
20000;SDS011;10161;41.188;-8.642;2022-11-15T04:22:53;11.60;;;3.83;;
20000;SDS011;10161;41.188;-8.642;2022-11-15T04:25:39;11.17;;;3.43;;
20000;SDS011;10161;41.188;-8.642;2022-11-15T04:28:06;13.63;;;3.60;;
20000;SDS011;10161;41.188;-8.642;2022-11-15T04:30:32;11.37;;;3.37;;
20000;SDS011;10161;41.188;-8.642;2022-11-15T04:32:59;18.70;;;4.03;;
20000;SDS011;10161;41.188;-8.642;2022-11-15T04:35:26;22.07;;;4.27;;
20000;SDS011;10161;41.188;-8.642;2022-11-15T04:37:55;13.67;;;3.50;;
20000;SDS011;10161;41.188;-8.642;2022-11-15T04:40:22;12.23;;;3.83;;
20000;SDS011;10161;41.188;-8.642;2022-11-15T04:42:49;10.17;;;2.70;;
20000;SDS011;10161;41.188;-8.642;2022-11-15T04:45:16;11.03;;;3.17;;
20000;SDS011;10161;41.188;-8.642;2022-11-15T04:47:43;10.63;;;3.13;;
20000;SDS011;10161;41.188;-8.642;2022-11-15T04:50:11;6.93;;;3.10;;
20000;SDS011;10161;41.188;-8.642;2022-11-15T04:52:39;11.10;;;3.13;;
20000;SDS011;10161;41.188;-8.642;2022-11-15T04:55:08;17.10;;;3.97;;
20000;SDS011;10161;41.188;-8.642;2022-11-15T04:57:35;15.60;;;4.77;;
20000;SDS011;10161;41.188;-8.642;2022-11-15T05:00:04;11.00;;;3.50;;
20000;SDS011;10161;41.188;-8.642;2022-11-15T05:02:33;17.57;;;3.83;;
20000;SDS011;10161;41.188;-8.642;2022-11-15T05:05:13;14.90;;;3.63;;
20000;SDS011;10161;41.188;-8.642;2022-11-15T05:07:40;10.97;;;3.13;;
20000;SDS011;10161;41.188;-8.642;2022-11-15T05:10:09;16.13;;;4.20;;
20000;SDS011;10161;41.188;-8.642;2022-11-15T05:12:36;17.43;;;4.37;;
20000;SDS011;10161;41.188;-8.642;2022-11-15T05:15:03;21.30;;;4.43;;
20000;SDS011;10161;41.188;-8.642;2022-11-15T05:17:31;22.37;;;4.17;;
20000;SDS011;10161;41.188;-8.642;2022-11-15T05:19:57;15.30;;;4.03;;
20000;SDS011;10161;41.188;-8.642;2022-11-15T05:22:24;22.77;;;4.40;;
20000;SDS011;10161;41.188;-8.642;2022-11-15T05:24:51;18.67;;;4.33;;
20000;SDS011;10161;41.188;-8.642;2022-11-15T05:27:20;21.43;;;4.27;;
20000;SDS011;10161;41.188;-8.642;2022-11-15T05:29:47;26.13;;;4.50;;
20000;SDS011;10161;41.188;-8.642;2022-11-15T05:32:13;28.63;;;4.93;;
20000;SDS011;10161;41.188;-8.642;2022-11-15T05:34:40;27.37;;;5.70;;
20000;SDS011;10161;41.188;-8.642;2022-11-15T05:37:07;29.90;;;5.53;;
20000;SDS011;10161;41.188;-8.642;2022-11-15T05:39:34;23.00;;;4.83;;
20000;SDS011;10161;41.188;-8.642;2022-11-15T05:42:01;21.60;;;4.77;;
20000;SDS011;10161;41.188;-8.642;2022-11-15T05:44:32;16.93;;;3.17;;
20000;SDS011;10161;41.188;-8.642;2022-11-15T05:47:00;14.30;;;3.53;;
20000;SDS011;10161;41.188;-8.642;2022-11-15T05:49:27;15.63;;;3.20;;
20000;SDS011;10161;41.188;-8.642;2022-11-15T05:51:57;18.73;;;3.60;;
20000;SDS011;10161;41.188;-8.642;2022-11-15T05:54:24;18.53;;;3.17;;
20000;SDS011;10161;41.188;-8.642;2022-11-15T05:56:52;17.60;;;3.80;;
20000;SDS011;10161;41.188;-8.642;2022-11-15T05:59:19;21.83;;;4.37;;
20000;SDS011;10161;41.188;-8.642;2022-11-15T06:01:47;17.90;;;3.27;;
20000;SDS011;10161;41.188;-8.642;2022-11-15T06:04:14;19.10;;;3.63;;
20000;SDS011;10161;41.188;-8.642;2022-11-15T06:06:41;25.97;;;3.40;;
20000;SDS011;10161;41.188;-8.642;2022-11-15T06:09:07;19.67;;;4.00;;
20000;SDS011;10161;41.188;-8.642;2022-11-15T06:11:34;30.63;;;4.43;;
20000;SDS011;10161;41.188;-8.642;2022-11-15T06:14:01;28.00;;;4.67;;
20000;SDS011;10161;41.188;-8.642;2022-11-15T06:16:28;17.97;;;3.80;;
20000;SDS011;10161;41.188;-8.642;2022-11-15T06:18:56;19.03;;;3.77;;
20000;SDS011;10161;41.188;-8.642;2022-11-15T06:21:23;18.53;;;3.70;;
20000;SDS011;10161;41.188;-8.642;2022-11-15T06:23:52;16.50;;;3.40;;
20000;SDS011;10161;41.188;-8.642;2022-11-15T06:26:19;17.00;;;3.30;;
20000;SDS011;10161;41.188;-8.642;2022-11-15T06:28:46;11.67;;;3.30;;
20000;SDS011;10161;41.188;-8.642;2022-11-15T06:31:13;16.40;;;3.20;;
20000;SDS011;10161;41.188;-8.642;2022-11-15T06:33:40;16.10;;;3.17;;
20000;SDS011;10161;41.188;-8.642;2022-11-15T06:36:09;21.60;;;3.77;;
20000;SDS011;10161;41.188;-8.642;2022-11-15T06:38:38;21.40;;;3.97;;
20000;SDS011;10161;41.188;-8.642;2022-11-15T06:41:06;23.70;;;4.10;;
20000;SDS011;10161;41.188;-8.642;2022-11-15T06:43:34;19.83;;;3.70;;
20000;SDS011;10161;41.188;-8.642;2022-11-15T06:46:02;15.43;;;3.00;;
20000;SDS011;10161;41.188;-8.642;2022-11-15T06:48:29;17.23;;;3.33;;
20000;SDS011;10161;41.188;-8.642;2022-11-15T06:50:57;17.90;;;3.63;;
20000;SDS011;10161;41.188;-8.642;2022-11-15T06:53:27;15.40;;;3.37;;
20000;SDS011;10161;41.188;-8.642;2022-11-15T06:55:57;20.70;;;3.43;;
20000;SDS011;10161;41.188;-8.642;2022-11-15T06:58:25;15.87;;;3.73;;
20000;SDS011;10161;41.188;-8.642;2022-11-15T07:00:52;20.27;;;3.87;;
20000;SDS011;10161;41.188;-8.642;2022-11-15T07:03:19;32.87;;;5.33;;
20000;SDS011;10161;41.188;-8.642;2022-11-15T07:05:50;36.10;;;6.60;;
20000;SDS011;10161;41.188;-8.642;2022-11-15T07:08:18;42.60;;;5.40;;
20000;SDS011;10161;41.188;-8.642;2022-11-15T07:10:46;32.77;;;5.00;;
20000;SDS011;10161;41.188;-8.642;2022-11-15T07:13:13;27.97;;;4.47;;
20000;SDS011;10161;41.188;-8.642;2022-11-15T07:15:40;33.90;;;4.63;;
20000;SDS011;10161;41.188;-8.642;2022-11-15T07:18:07;25.23;;;4.47;;
20000;SDS011;10161;41.188;-8.642;2022-11-15T07:20:34;26.17;;;4.83;;
20000;SDS011;10161;41.188;-8.642;2022-11-15T07:23:01;27.07;;;4.57;;
20000;SDS011;10161;41.188;-8.642;2022-11-15T07:25:28;29.57;;;4.37;;
20000;SDS011;10161;41.188;-8.642;2022-11-15T07:27:57;29.23;;;5.00;;
20000;SDS011;10161;41.188;-8.642;2022-11-15T07:30:24;23.63;;;4.47;;
20000;SDS011;10161;41.188;-8.642;2022-11-15T07:32:52;23.60;;;4.10;;
20000;SDS011;10161;41.188;-8.642;2022-11-15T07:35:20;27.97;;;5.00;;
20000;SDS011;10161;41.188;-8.642;2022-11-15T07:37:52;21.33;;;3.80;;
20000;SDS011;10161;41.188;-8.642;2022-11-15T07:40:20;19.10;;;3.77;;
20000;SDS011;10161;41.188;-8.642;2022-11-15T07:42:47;12.13;;;2.90;;
20000;SDS011;10161;41.188;-8.642;2022-11-15T07:45:22;25.83;;;3.93;;
20000;SDS011;10161;41.188;-8.642;2022-11-15T07:47:50;23.63;;;3.80;;
20000;SDS011;10161;41.188;-8.642;2022-11-15T07:50:18;17.43;;;3.67;;
20000;SDS011;10161;41.188;-8.642;2022-11-15T07:52:45;25.83;;;4.30;;
20000;SDS011;10161;41.188;-8.642;2022-11-15T07:55:12;19.53;;;4.13;;
20000;SDS011;10161;41.188;-8.642;2022-11-15T07:57:39;15.50;;;3.53;;
20000;SDS011;10161;41.188;-8.642;2022-11-15T08:00:06;12.03;;;3.10;;
20000;SDS011;10161;41.188;-8.642;2022-11-15T08:02:35;29.70;;;3.67;;
20000;SDS011;10161;41.188;-8.642;2022-11-15T08:05:02;25.93;;;4.20;;
20000;SDS011;10161;41.188;-8.642;2022-11-15T08:07:29;24.73;;;3.87;;
20000;SDS011;10161;41.188;-8.642;2022-11-15T08:09:56;28.63;;;4.87;;
20000;SDS011;10161;41.188;-8.642;2022-11-15T08:12:23;18.57;;;4.03;;
20000;SDS011;10161;41.188;-8.642;2022-11-15T08:14:50;10.63;;;3.17;;
20000;SDS011;10161;41.188;-8.642;2022-11-15T08:17:17;9.10;;;2.43;;
20000;SDS011;10161;41.188;-8.642;2022-11-15T08:19:45;4.87;;;1.80;;
20000;SDS011;10161;41.188;-8.642;2022-11-15T08:22:13;10.07;;;2.83;;
20000;SDS011;10161;41.188;-8.642;2022-11-15T08:24:40;12.73;;;3.20;;
20000;SDS011;10161;41.188;-8.642;2022-11-15T08:27:06;26.53;;;5.57;;
20000;SDS011;10161;41.188;-8.642;2022-11-15T08:29:40;23.67;;;4.70;;
20000;SDS011;10161;41.188;-8.642;2022-11-15T08:32:08;26.33;;;6.17;;
20000;SDS011;10161;41.188;-8.642;2022-11-15T08:34:35;43.43;;;6.13;;
20000;SDS011;10161;41.188;-8.642;2022-11-15T08:37:03;23.07;;;5.43;;
20000;SDS011;10161;41.188;-8.642;2022-11-15T08:39:30;31.60;;;6.30;;
20000;SDS011;10161;41.188;-8.642;2022-11-15T08:41:57;32.10;;;5.43;;
20000;SDS011;10161;41.188;-8.642;2022-11-15T08:44:27;32.40;;;4.93;;
20000;SDS011;10161;41.188;-8.642;2022-11-15T08:46:54;19.37;;;4.83;;
20000;SDS011;10161;41.188;-8.642;2022-11-15T08:49:21;20.47;;;4.53;;
20000;SDS011;10161;41.188;-8.642;2022-11-15T08:51:48;22.70;;;4.93;;
20000;SDS011;10161;41.188;-8.642;2022-11-15T08:54:16;20.43;;;5.60;;
20000;SDS011;10161;41.188;-8.642;2022-11-15T08:56:43;26.23;;;5.03;;
20000;SDS011;10161;41.188;-8.642;2022-11-15T08:59:09;27.53;;;5.30;;
20000;SDS011;10161;41.188;-8.642;2022-11-15T09:01:36;32.87;;;6.40;;
20000;SDS011;10161;41.188;-8.642;2022-11-15T09:04:03;25.20;;;4.60;;
20000;SDS011;10161;41.188;-8.642;2022-11-15T09:06:30;35.47;;;5.20;;
20000;SDS011;10161;41.188;-8.642;2022-11-15T09:08:57;27.30;;;5.33;;
20000;SDS011;10161;41.188;-8.642;2022-11-15T09:11:25;27.40;;;4.73;;
20000;SDS011;10161;41.188;-8.642;2022-11-15T09:13:52;25.80;;;5.20;;
20000;SDS011;10161;41.188;-8.642;2022-11-15T09:16:19;33.43;;;4.70;;
20000;SDS011;10161;41.188;-8.642;2022-11-15T09:18:46;22.93;;;4.60;;
20000;SDS011;10161;41.188;-8.642;2022-11-15T09:21:13;18.30;;;4.33;;
20000;SDS011;10161;41.188;-8.642;2022-11-15T09:23:40;16.13;;;4.00;;
20000;SDS011;10161;41.188;-8.642;2022-11-15T09:26:07;23.50;;;4.83;;
20000;SDS011;10161;41.188;-8.642;2022-11-15T09:28:35;16.03;;;3.50;;
20000;SDS011;10161;41.188;-8.642;2022-11-15T09:31:04;17.30;;;4.00;;
20000;SDS011;10161;41.188;-8.642;2022-11-15T09:33:31;21.50;;;4.40;;
20000;SDS011;10161;41.188;-8.642;2022-11-15T09:36:01;22.90;;;5.07;;
20000;SDS011;10161;41.188;-8.642;2022-11-15T09:38:29;16.13;;;3.70;;
20000;SDS011;10161;41.188;-8.642;2022-11-15T09:40:59;20.67;;;4.43;;
20000;SDS011;10161;41.188;-8.642;2022-11-15T09:43:43;25.87;;;4.57;;
20000;SDS011;10161;41.188;-8.642;2022-11-15T09:46:16;16.83;;;4.07;;
20000;SDS011;10161;41.188;-8.642;2022-11-15T09:48:50;24.07;;;4.60;;
20000;SDS011;10161;41.188;-8.642;2022-11-15T09:51:23;26.37;;;4.60;;
20000;SDS011;10161;41.188;-8.642;2022-11-15T09:53:56;22.93;;;4.13;;
20000;SDS011;10161;41.188;-8.642;2022-11-15T09:56:26;17.80;;;3.40;;
20000;SDS011;10161;41.188;-8.642;2022-11-15T09:58:57;20.20;;;4.33;;
20000;SDS011;10161;41.188;-8.642;2022-11-15T10:01:34;15.17;;;3.77;;
20000;SDS011;10161;41.188;-8.642;2022-11-15T10:04:05;20.50;;;4.53;;
20000;SDS011;10161;41.188;-8.642;2022-11-15T10:06:32;21.80;;;4.60;;
20000;SDS011;10161;41.188;-8.642;2022-11-15T10:09:01;12.43;;;3.53;;
20000;SDS011;10161;41.188;-8.642;2022-11-15T10:11:32;12.10;;;3.50;;
20000;SDS011;10161;41.188;-8.642;2022-11-15T10:14:04;19.30;;;4.03;;
20000;SDS011;10161;41.188;-8.642;2022-11-15T10:16:45;16.50;;;3.60;;
20000;SDS011;10161;41.188;-8.642;2022-11-15T10:19:28;17.33;;;3.83;;
20000;SDS011;10161;41.188;-8.642;2022-11-15T10:22:01;20.80;;;4.10;;
20000;SDS011;10161;41.188;-8.642;2022-11-15T10:24:34;15.50;;;3.60;;
20000;SDS011;10161;41.188;-8.642;2022-11-15T10:27:04;14.70;;;3.33;;
20000;SDS011;10161;41.188;-8.642;2022-11-15T10:29:36;18.47;;;3.60;;
20000;SDS011;10161;41.188;-8.642;2022-11-15T10:32:09;22.37;;;4.40;;
20000;SDS011;10161;41.188;-8.642;2022-11-15T10:34:37;25.23;;;4.23;;
20000;SDS011;10161;41.188;-8.642;2022-11-15T10:37:04;20.33;;;4.00;;
20000;SDS011;10161;41.188;-8.642;2022-11-15T10:39:31;29.83;;;4.07;;
20000;SDS011;10161;41.188;-8.642;2022-11-15T10:42:00;20.80;;;4.20;;
20000;SDS011;10161;41.188;-8.642;2022-11-15T10:44:43;12.17;;;4.00;;
20000;SDS011;10161;41.188;-8.642;2022-11-15T10:47:27;20.70;;;4.67;;
20000;SDS011;10161;41.188;-8.642;2022-11-15T10:50:00;21.63;;;4.50;;
20000;SDS011;10161;41.188;-8.642;2022-11-15T10:52:29;22.40;;;4.30;;
20000;SDS011;10161;41.188;-8.642;2022-11-15T10:54:57;16.27;;;3.83;;
20000;SDS011;10161;41.188;-8.642;2022-11-15T10:57:28;13.37;;;3.60;;
20000;SDS011;10161;41.188;-8.642;2022-11-15T10:59:59;9.60;;;2.87;;
20000;SDS011;10161;41.188;-8.642;2022-11-15T11:02:28;11.67;;;3.17;;
20000;SDS011;10161;41.188;-8.642;2022-11-15T11:04:57;19.43;;;3.70;;
20000;SDS011;10161;41.188;-8.642;2022-11-15T11:07:25;12.97;;;3.43;;
20000;SDS011;10161;41.188;-8.642;2022-11-15T11:09:57;16.43;;;4.03;;
20000;SDS011;10161;41.188;-8.642;2022-11-15T11:12:28;13.17;;;3.10;;
20000;SDS011;10161;41.188;-8.642;2022-11-15T11:14:58;12.00;;;3.13;;
20000;SDS011;10161;41.188;-8.642;2022-11-15T11:17:32;11.20;;;2.60;;
20000;SDS011;10161;41.188;-8.642;2022-11-15T11:20:03;14.07;;;3.43;;
20000;SDS011;10161;41.188;-8.642;2022-11-15T11:22:37;10.87;;;3.20;;
20000;SDS011;10161;41.188;-8.642;2022-11-15T11:25:11;10.23;;;3.20;;
20000;SDS011;10161;41.188;-8.642;2022-11-15T11:27:47;13.07;;;3.17;;
20000;SDS011;10161;41.188;-8.642;2022-11-15T11:30:32;12.30;;;3.03;;
20000;SDS011;10161;41.188;-8.642;2022-11-15T11:33:07;4.87;;;2.20;;
20000;SDS011;10161;41.188;-8.642;2022-11-15T11:35:39;14.10;;;2.80;;
20000;SDS011;10161;41.188;-8.642;2022-11-15T11:38:18;15.03;;;3.60;;
20000;SDS011;10161;41.188;-8.642;2022-11-15T11:40:54;9.90;;;3.20;;
20000;SDS011;10161;41.188;-8.642;2022-11-15T11:43:27;11.77;;;3.70;;
20000;SDS011;10161;41.188;-8.642;2022-11-15T11:46:05;13.30;;;4.00;;
20000;SDS011;10161;41.188;-8.642;2022-11-15T11:48:41;9.13;;;3.70;;
20000;SDS011;10161;41.188;-8.642;2022-11-15T11:51:15;20.30;;;5.60;;
20000;SDS011;10161;41.188;-8.642;2022-11-15T11:53:46;12.53;;;3.70;;
20000;SDS011;10161;41.188;-8.642;2022-11-15T11:56:19;13.00;;;3.47;;
20000;SDS011;10161;41.188;-8.642;2022-11-15T11:58:49;14.77;;;3.90;;
20000;SDS011;10161;41.188;-8.642;2022-11-15T12:01:20;17.23;;;4.20;;
20000;SDS011;10161;41.188;-8.642;2022-11-15T12:03:51;13.50;;;3.50;;
20000;SDS011;10161;41.188;-8.642;2022-11-15T12:06:24;12.63;;;3.30;;
20000;SDS011;10161;41.188;-8.642;2022-11-15T12:08:57;10.57;;;3.63;;
20000;SDS011;10161;41.188;-8.642;2022-11-15T12:11:28;17.97;;;4.20;;
20000;SDS011;10161;41.188;-8.642;2022-11-15T12:13:57;16.57;;;3.57;;
20000;SDS011;10161;41.188;-8.642;2022-11-15T12:16:28;18.57;;;4.30;;
20000;SDS011;10161;41.188;-8.642;2022-11-15T12:18:56;18.33;;;4.10;;
20000;SDS011;10161;41.188;-8.642;2022-11-15T12:21:28;15.03;;;4.10;;
20000;SDS011;10161;41.188;-8.642;2022-11-15T12:24:01;18.50;;;4.30;;
20000;SDS011;10161;41.188;-8.642;2022-11-15T12:26:32;20.20;;;4.90;;
20000;SDS011;10161;41.188;-8.642;2022-11-15T12:29:03;21.20;;;4.83;;
20000;SDS011;10161;41.188;-8.642;2022-11-15T12:31:36;18.93;;;5.20;;
20000;SDS011;10161;41.188;-8.642;2022-11-15T12:34:12;18.83;;;4.60;;
20000;SDS011;10161;41.188;-8.642;2022-11-15T12:36:42;20.40;;;4.70;;
20000;SDS011;10161;41.188;-8.642;2022-11-15T12:39:09;20.23;;;5.13;;
20000;SDS011;10161;41.188;-8.642;2022-11-15T12:41:37;21.47;;;4.90;;
20000;SDS011;10161;41.188;-8.642;2022-11-15T12:44:05;21.53;;;4.90;;
20000;SDS011;10161;41.188;-8.642;2022-11-15T12:49:45;16.13;;;4.00;;
20000;SDS011;10161;41.188;-8.642;2022-11-15T12:52:12;15.00;;;3.47;;
20000;SDS011;10161;41.188;-8.642;2022-11-15T12:57:51;19.30;;;3.80;;
20000;SDS011;10161;41.188;-8.642;2022-11-15T13:05:57;18.70;;;3.43;;
20000;SDS011;10161;41.188;-8.642;2022-11-15T13:17:19;12.07;;;2.80;;
20000;SDS011;10161;41.188;-8.642;2022-11-15T13:19:55;11.27;;;2.90;;
20000;SDS011;10161;41.188;-8.642;2022-11-15T13:22:25;9.83;;;2.40;;
20000;SDS011;10161;41.188;-8.642;2022-11-15T13:25:21;10.30;;;2.60;;
20000;SDS011;10161;41.188;-8.642;2022-11-15T13:28:10;18.43;;;4.00;;
20000;SDS011;10161;41.188;-8.642;2022-11-15T13:30:48;15.77;;;2.80;;
20000;SDS011;10161;41.188;-8.642;2022-11-15T13:33:17;8.27;;;2.90;;
20000;SDS011;10161;41.188;-8.642;2022-11-15T13:35:48;14.13;;;3.03;;
20000;SDS011;10161;41.188;-8.642;2022-11-15T13:38:18;12.23;;;3.20;;
20000;SDS011;10161;41.188;-8.642;2022-11-15T13:40:53;11.60;;;2.73;;
20000;SDS011;10161;41.188;-8.642;2022-11-15T13:43:26;14.20;;;3.53;;
20000;SDS011;10161;41.188;-8.642;2022-11-15T13:46:06;10.37;;;2.80;;
20000;SDS011;10161;41.188;-8.642;2022-11-15T13:48:33;11.00;;;2.87;;
20000;SDS011;10161;41.188;-8.642;2022-11-15T13:51:02;10.10;;;3.20;;
20000;SDS011;10161;41.188;-8.642;2022-11-15T13:53:30;10.20;;;2.60;;
20000;SDS011;10161;41.188;-8.642;2022-11-15T13:55:58;24.60;;;4.77;;
20000;SDS011;10161;41.188;-8.642;2022-11-15T13:58:25;16.63;;;4.40;;
20000;SDS011;10161;41.188;-8.642;2022-11-15T14:00:58;10.80;;;3.97;;
20000;SDS011;10161;41.188;-8.642;2022-11-15T14:03:26;14.13;;;3.77;;
20000;SDS011;10161;41.188;-8.642;2022-11-15T14:06:06;18.83;;;7.93;;
20000;SDS011;10161;41.188;-8.642;2022-11-15T14:08:37;16.00;;;9.10;;
20000;SDS011;10161;41.188;-8.642;2022-11-15T14:11:08;30.13;;;13.77;;
20000;SDS011;10161;41.188;-8.642;2022-11-15T14:13:39;10.87;;;3.37;;
20000;SDS011;10161;41.188;-8.642;2022-11-15T14:16:13;12.73;;;3.00;;
20000;SDS011;10161;41.188;-8.642;2022-11-15T14:18:45;26.50;;;15.20;;
20000;SDS011;10161;41.188;-8.642;2022-11-15T14:21:14;38.40;;;21.80;;
20000;SDS011;10161;41.188;-8.642;2022-11-15T14:23:42;21.50;;;9.53;;
20000;SDS011;10161;41.188;-8.642;2022-11-15T14:26:24;12.30;;;6.90;;
20000;SDS011;10161;41.188;-8.642;2022-11-15T14:28:53;22.03;;;8.77;;
20000;SDS011;10161;41.188;-8.642;2022-11-15T14:31:20;13.93;;;8.07;;
20000;SDS011;10161;41.188;-8.642;2022-11-15T14:33:47;20.53;;;6.80;;
20000;SDS011;10161;41.188;-8.642;2022-11-15T14:36:16;20.07;;;8.60;;
20000;SDS011;10161;41.188;-8.642;2022-11-15T14:38:44;42.77;;;27.90;;
20000;SDS011;10161;41.188;-8.642;2022-11-15T14:41:17;29.70;;;15.83;;
20000;SDS011;10161;41.188;-8.642;2022-11-15T14:43:45;16.73;;;7.30;;
20000;SDS011;10161;41.188;-8.642;2022-11-15T14:46:12;19.73;;;10.93;;
20000;SDS011;10161;41.188;-8.642;2022-11-15T14:48:39;24.37;;;13.77;;
20000;SDS011;10161;41.188;-8.642;2022-11-15T14:51:09;17.47;;;8.27;;
20000;SDS011;10161;41.188;-8.642;2022-11-15T14:53:41;14.37;;;6.47;;
20000;SDS011;10161;41.188;-8.642;2022-11-15T14:56:09;13.40;;;5.20;;
20000;SDS011;10161;41.188;-8.642;2022-11-15T14:58:36;29.60;;;13.83;;
20000;SDS011;10161;41.188;-8.642;2022-11-15T15:01:03;24.47;;;13.17;;